createdAt,value
2023-03-06T00:01:18.459Z,9.67
2023-03-06T00:07:20.431Z,9.73
2023-03-06T00:13:24.997Z,13.40
2023-03-06T00:19:28.103Z,10.83
2023-03-06T00:25:30.189Z,12.30
2023-03-06T00:31:32.397Z,14.27
2023-03-06T00:37:34.329Z,11.73
2023-03-06T00:43:36.360Z,15.73
2023-03-06T00:49:38.490Z,14.33
2023-03-06T00:55:40.377Z,14.57
2023-03-06T01:01:42.349Z,16.50
2023-03-06T01:07:44.320Z,14.60
2023-03-06T01:13:46.377Z,16.53
2023-03-06T01:19:48.258Z,16.57
2023-03-06T01:25:50.141Z,24.00
2023-03-06T01:31:52.270Z,17.77
2023-03-06T01:37:54.212Z,20.40
2023-03-06T01:43:56.262Z,19.00
2023-03-06T01:50:00.620Z,18.70
2023-03-06T01:56:02.738Z,22.73
2023-03-06T02:02:08.744Z,22.50
2023-03-06T02:08:19.297Z,21.97
2023-03-06T02:14:21.698Z,27.40
2023-03-06T02:20:28.919Z,19.37
2023-03-06T02:26:32.835Z,26.23
2023-03-06T02:32:34.908Z,25.47
2023-03-06T02:38:50.916Z,25.50
2023-03-06T02:44:53.832Z,22.73
2023-03-06T02:50:55.905Z,23.23
2023-03-06T02:56:57.793Z,22.57
2023-03-06T03:02:59.886Z,24.03
2023-03-06T03:09:01.790Z,24.30
2023-03-06T03:15:04.624Z,24.10
2023-03-06T03:21:12.945Z,20.43
2023-03-06T03:27:14.918Z,22.37
2023-03-06T03:33:16.832Z,23.93
2023-03-06T03:39:19.818Z,24.23
2023-03-06T03:45:22.185Z,25.37
2023-03-06T03:51:24.150Z,27.70
2023-03-06T03:57:26.208Z,24.80
2023-03-06T04:03:29.236Z,22.33
2023-03-06T04:09:31.396Z,25.27
2023-03-06T04:15:33.384Z,29.70
2023-03-06T04:21:35.296Z,22.57
2023-03-06T04:27:37.178Z,26.00
2023-03-06T04:33:39.341Z,26.13
2023-03-06T04:39:41.189Z,27.80
2023-03-06T04:45:43.153Z,27.33
2023-03-06T04:51:45.055Z,30.70
2023-03-06T04:57:47.807Z,25.47
2023-03-06T05:03:49.983Z,27.57
2023-03-06T05:09:52.027Z,27.73
2023-03-06T05:15:54.175Z,27.63
2023-03-06T05:21:56.067Z,27.07
2023-03-06T05:27:58.434Z,28.57
2023-03-06T05:34:00.690Z,27.47
2023-03-06T05:40:06.728Z,28.73
2023-03-06T05:46:10.525Z,27.00
2023-03-06T05:52:13.165Z,26.80
2023-03-06T05:58:15.063Z,26.60
2023-03-06T06:04:16.946Z,28.17
2023-03-06T06:10:18.924Z,27.47
2023-03-06T06:16:20.828Z,27.90
2023-03-06T06:22:22.705Z,27.93
2023-03-06T06:28:24.604Z,27.90
2023-03-06T06:34:27.470Z,30.77
2023-03-06T06:40:29.651Z,29.97
2023-03-06T06:47:19.312Z,25.73
2023-03-06T06:52:53.495Z,33.37
2023-03-06T06:59:15.358Z,27.50
2023-03-06T07:05:21.009Z,28.30
2023-03-06T07:11:24.246Z,24.33
2023-03-06T07:17:26.198Z,30.97
2023-03-06T07:23:28.421Z,28.50
2023-03-06T07:29:32.919Z,28.37
2023-03-06T07:35:35.292Z,35.83
2023-03-06T07:41:37.325Z,35.47
2023-03-06T07:47:40.147Z,31.17
2023-03-06T07:53:42.499Z,33.90
2023-03-06T07:59:44.373Z,31.60
2023-03-06T08:05:46.351Z,33.73
2023-03-06T08:11:48.279Z,31.93
2023-03-06T08:17:51.068Z,31.20
2023-03-06T08:23:53.308Z,27.07
2023-03-06T08:29:55.195Z,29.80
2023-03-06T08:35:57.111Z,28.57
2023-03-06T08:41:59.037Z,29.70
2023-03-06T08:48:00.939Z,26.63
2023-03-06T08:54:02.991Z,30.77
2023-03-06T09:00:08.840Z,29.23
2023-03-06T09:06:10.799Z,28.00
2023-03-06T09:12:12.680Z,26.17
2023-03-06T09:18:14.555Z,25.83
2023-03-06T09:24:16.532Z,23.20
2023-03-06T09:30:19.010Z,14.70
2023-03-06T09:36:22.746Z,12.63
2023-03-06T09:42:25.406Z,13.23
2023-03-06T09:48:52.048Z,14.47
2023-03-06T09:55:04.604Z,12.27
2023-03-06T10:01:36.578Z,14.03
2023-03-06T10:08:18.653Z,14.13
2023-03-06T10:14:37.946Z,13.20
2023-03-06T10:21:04.739Z,9.87
2023-03-06T10:27:42.921Z,9.83
2023-03-06T10:33:55.667Z,11.30
2023-03-06T10:40:28.864Z,10.57
2023-03-06T10:46:37.421Z,12.37
2023-03-06T10:52:39.510Z,10.70
2023-03-06T10:58:41.450Z,10.20
2023-03-06T11:04:51.282Z,10.70
2023-03-06T11:11:02.299Z,10.10
2023-03-06T11:17:04.497Z,11.10
2023-03-06T11:23:37.264Z,12.70
2023-03-06T11:29:45.391Z,14.53
2023-03-06T11:36:05.320Z,13.17
2023-03-06T11:42:26.120Z,14.80
2023-03-06T11:48:36.851Z,16.23
2023-03-06T11:54:38.855Z,12.77
2023-03-06T12:01:08.725Z,15.60
2023-03-06T12:07:30.616Z,12.90
2023-03-06T12:13:54.327Z,14.20
2023-03-06T12:20:54.380Z,13.67
2023-03-06T12:27:15.402Z,17.40
2023-03-06T12:33:36.720Z,13.53
2023-03-06T12:40:02.953Z,27.40
2023-03-06T12:46:27.026Z,16.20
2023-03-06T12:52:34.353Z,26.37
2023-03-06T12:59:02.479Z,20.60
2023-03-06T13:05:43.938Z,14.60
2023-03-06T13:12:25.866Z,14.77
2023-03-06T13:18:46.120Z,14.37
2023-03-06T13:24:49.452Z,11.07
2023-03-06T13:30:53.368Z,12.70
2023-03-06T13:37:23.113Z,16.13
2023-03-06T13:43:25.183Z,18.67
2023-03-06T13:49:29.117Z,10.73
2023-03-06T13:55:57.097Z,11.20
2023-03-06T14:02:45.667Z,13.70
2023-03-06T14:08:47.775Z,15.83
2023-03-06T14:15:00.172Z,11.97
2023-03-06T14:21:06.248Z,11.60
2023-03-06T14:27:21.399Z,9.83
2023-03-06T14:33:51.232Z,7.43
2023-03-06T14:39:55.189Z,6.30
2023-03-06T14:46:03.141Z,9.83
2023-03-06T14:52:05.304Z,23.43
2023-03-06T14:58:36.086Z,10.20
2023-03-06T15:04:45.904Z,7.10
2023-03-06T15:11:05.773Z,5.43
2023-03-06T15:17:19.845Z,6.70
2023-03-06T15:23:27.236Z,7.60
2023-03-06T15:29:29.185Z,5.00
2023-03-06T15:35:34.264Z,16.80
2023-03-06T15:41:39.083Z,7.60
2023-03-06T15:47:41.307Z,8.57
2023-03-06T15:53:43.194Z,10.97
2023-03-06T15:59:45.553Z,6.13
2023-03-06T16:05:47.605Z,62.23
2023-03-06T16:11:49.675Z,8.27
2023-03-06T16:17:51.602Z,7.10
2023-03-06T16:23:53.651Z,6.80
2023-03-06T16:29:55.535Z,6.57
2023-03-06T16:35:57.456Z,5.87
2023-03-06T16:41:59.329Z,6.33
2023-03-06T16:48:01.324Z,5.10
2023-03-06T16:54:03.281Z,6.17
2023-03-06T17:00:06.621Z,7.00
2023-03-06T17:06:21.287Z,10.53
2023-03-06T17:12:23.166Z,7.70
2023-03-06T17:18:27.636Z,8.57
2023-03-06T17:24:29.556Z,8.63
2023-03-06T17:30:31.454Z,8.13
2023-03-06T17:36:33.662Z,9.70
2023-03-06T17:42:35.892Z,9.30
2023-03-06T17:48:38.124Z,13.20
2023-03-06T17:54:40.431Z,9.53
2023-03-06T18:00:43.052Z,8.90
2023-03-06T18:06:44.977Z,10.23
2023-03-06T18:12:46.872Z,11.70
2023-03-06T18:18:55.990Z,8.17
2023-03-06T18:24:57.891Z,8.50
2023-03-06T18:30:59.850Z,9.53
2023-03-06T18:37:01.727Z,12.83
2023-03-06T18:43:03.643Z,9.90
2023-03-06T18:49:06.466Z,12.23
2023-03-06T18:55:09.547Z,14.00
2023-03-06T19:01:11.896Z,12.10
2023-03-06T19:07:13.949Z,14.00
2023-03-06T19:13:16.047Z,15.27
2023-03-06T19:19:17.953Z,14.80
2023-03-06T19:25:20.233Z,14.57
2023-03-06T19:31:26.236Z,15.03
2023-03-06T19:37:28.300Z,17.60
2023-03-06T19:43:31.054Z,18.80
2023-03-06T19:49:39.843Z,14.77
2023-03-06T19:55:43.037Z,17.50
2023-03-06T20:01:45.117Z,18.90
2023-03-06T20:07:47.201Z,17.33
2023-03-06T20:13:49.761Z,19.90
2023-03-06T20:19:51.729Z,28.63
2023-03-06T20:26:07.247Z,20.47
2023-03-06T20:32:09.213Z,26.00
2023-03-06T20:38:11.684Z,21.40
2023-03-06T20:44:18.029Z,24.63
2023-03-06T20:50:19.906Z,21.00
2023-03-06T20:56:29.186Z,24.33
2023-03-06T21:02:31.150Z,22.40
2023-03-06T21:08:33.032Z,26.33
2023-03-06T21:14:34.911Z,23.47
2023-03-06T21:20:41.178Z,24.73
2023-03-06T21:26:43.081Z,25.90
2023-03-06T21:32:45.024Z,26.70
2023-03-06T21:38:49.423Z,24.37
2023-03-06T21:44:51.323Z,28.00
2023-03-06T21:50:53.224Z,23.67
2023-03-06T21:56:55.216Z,25.47
2023-03-06T22:02:57.201Z,22.27
2023-03-06T22:09:00.848Z,22.83
2023-03-06T22:15:03.121Z,23.50
2023-03-06T22:21:10.739Z,24.47
2023-03-06T22:27:12.613Z,23.10
2023-03-06T22:33:14.521Z,29.17
2023-03-06T22:39:17.234Z,34.23
2023-03-06T22:45:19.150Z,26.70
2023-03-06T22:51:21.614Z,28.93
2023-03-06T22:57:23.720Z,28.40
2023-03-06T23:03:25.588Z,26.30
2023-03-06T23:09:27.515Z,22.00
2023-03-06T23:15:29.448Z,32.90
2023-03-06T23:21:31.573Z,28.47
2023-03-06T23:27:36.204Z,36.60
2023-03-06T23:33:38.802Z,30.87
2023-03-06T23:39:40.789Z,27.83
2023-03-06T23:45:53.669Z,28.93
2023-03-06T23:51:55.569Z,31.37
2023-03-06T23:57:57.438Z,25.10
